Massillon, Ohio
Current Conditions -  °F | °C
As of 2:51 PM on Saturday 25 Oct 2014 (Local Time) from KCAK Reporting Station
Broken Clouds Broken Clouds  
Wind Chill: 69°   Ceiling: 20000
Heat Index: 69°   Visibility: 10mi
Dew Point: 52°   Wind: 17mph
Humidity: 54%   Direction: 250°WSW
Pressure: 29.79"   Gusts: 23mph
Location:  40.79°N, 81.52°W
Report Text: KCAK 251851Z 25015G20KT 10SM SCT033 BKN200 21/11 A2979 RMK AO2 SLP086 T02060111
Loading
Personal Weather Stations






























Interactive Weather Map New forecast layout! Learn more

10-Day Weather Forecast

Advertisements
Track Severe Weather on mobile